JST635 YBBN-YMAV
Flight info
| Callsign | JST635 |
|---|---|
| Flight time | 1h 56m |
| Altitude | 36000 |
| Route | BN H91 SANEG Q35 DORSU H119 ML W15 AV |
| Aircraft | A321/M-SDE3FGHIRWY/LB1 |
Departure
| Time | 2026-04-27 10:10 |
|---|---|
| Airport | Brisbane International Airport (YBBN) |
Arrival
| Time | 2026-04-27 12:07 |
|---|---|
| Airport | Melbourne Avalon International Airport (YMAV) |
| Time | Latitude | Longitude | Altitude | Speed | Heading |
|---|---|---|---|---|---|
| 2026-04-27 09:10 | -27.38576 | 153.12281 | 18 ft | 0 kts | 266° |
| 2026-04-27 10:00 | -27.38575 | 153.12285 | 18 ft | 3 kts | 267° |
| 2026-04-27 10:01 | -27.38576 | 153.12315 | 18 ft | 4 kts | 287° |
| 2026-04-27 10:01 | -27.38587 | 153.12335 | 18 ft | 4 kts | 352° |
| 2026-04-27 10:01 | -27.38595 | 153.12336 | 18 ft | 0 kts | 27° |
| 2026-04-27 10:04 | -27.38593 | 153.12337 | 18 ft | 1 kts | 27° |
| 2026-04-27 10:04 | -27.38581 | 153.12343 | 18 ft | 3 kts | 27° |
| 2026-04-27 10:05 | -27.38561 | 153.12356 | 18 ft | 4 kts | 28° |
| 2026-04-27 10:05 | -27.38547 | 153.12382 | 18 ft | 4 kts | 84° |
| 2026-04-27 10:05 | -27.38551 | 153.12418 | 18 ft | 5 kts | 84° |
| 2026-04-27 10:05 | -27.38532 | 153.12453 | 19 ft | 6 kts | 40° |
| 2026-04-27 10:06 | -27.38481 | 153.12484 | 18 ft | 11 kts | 27° |
| 2026-04-27 10:06 | -27.38390 | 153.12536 | 18 ft | 18 kts | 27° |
| 2026-04-27 10:06 | -27.38263 | 153.12609 | 18 ft | 22 kts | 26° |
| 2026-04-27 10:06 | -27.38134 | 153.12683 | 18 ft | 21 kts | 27° |
| 2026-04-27 10:07 | -27.38003 | 153.12757 | 18 ft | 21 kts | 27° |
| 2026-04-27 10:07 | -27.37868 | 153.12834 | 19 ft | 22 kts | 27° |
| 2026-04-27 10:07 | -27.37730 | 153.12913 | 18 ft | 23 kts | 27° |
| 2026-04-27 10:07 | -27.37591 | 153.12993 | 18 ft | 20 kts | 27° |
| 2026-04-27 10:08 | -27.37485 | 153.13055 | 18 ft | 17 kts | 27° |
| 2026-04-27 10:08 | -27.37373 | 153.13118 | 18 ft | 18 kts | 27° |
| 2026-04-27 10:08 | -27.37272 | 153.13193 | 18 ft | 15 kts | 66° |
| 2026-04-27 10:08 | -27.37296 | 153.13281 | 19 ft | 11 kts | 117° |
| 2026-04-27 10:09 | -27.37331 | 153.13359 | 19 ft | 11 kts | 118° |
| 2026-04-27 10:09 | -27.37388 | 153.13416 | 23 ft | 11 kts | 157° |
| 2026-04-27 10:09 | -27.37474 | 153.13422 | 23 ft | 13 kts | 192° |
| 2026-04-27 10:09 | -27.37566 | 153.13375 | 22 ft | 19 kts | 207° |
| 2026-04-27 10:10 | -27.37821 | 153.13228 | 21 ft | 74 kts | 207° |
| 2026-04-27 10:10 | -27.38473 | 153.12858 | 25 ft | 136 kts | 207° |
| 2026-04-27 10:10 | -27.39448 | 153.12294 | 178 ft | 167 kts | 207° |
| 2026-04-27 10:10 | -27.40428 | 153.11715 | 1017 ft | 154 kts | 206° |
| 2026-04-27 10:11 | -27.41358 | 153.11158 | 1736 ft | 151 kts | 202° |
| 2026-04-27 10:11 | -27.42333 | 153.10700 | 2197 ft | 152 kts | 185° |
| 2026-04-27 10:11 | -27.43399 | 153.10740 | 2566 ft | 158 kts | 160° |
| 2026-04-27 10:11 | -27.44422 | 153.11302 | 2892 ft | 172 kts | 147° |
| 2026-04-27 10:12 | -27.45478 | 153.12034 | 3241 ft | 185 kts | 145° |
| 2026-04-27 10:12 | -27.46601 | 153.12846 | 3557 ft | 199 kts | 145° |
| 2026-04-27 10:12 | -27.47862 | 153.13730 | 3601 ft | 231 kts | 148° |
| 2026-04-27 10:12 | -27.49348 | 153.14615 | 3804 ft | 257 kts | 156° |
| 2026-04-27 10:13 | -27.51167 | 153.14999 | 4207 ft | 279 kts | 178° |
| 2026-04-27 10:13 | -27.53139 | 153.14609 | 4689 ft | 300 kts | 194° |
| 2026-04-27 10:13 | -27.55117 | 153.13663 | 5164 ft | 315 kts | 200° |
| 2026-04-27 10:13 | -27.57151 | 153.12647 | 5829 ft | 322 kts | 200° |
| 2026-04-27 10:14 | -27.59238 | 153.11692 | 6558 ft | 326 kts | 197° |
| 2026-04-27 10:14 | -27.61397 | 153.10877 | 7283 ft | 328 kts | 194° |
| 2026-04-27 10:14 | -27.63600 | 153.10178 | 7996 ft | 331 kts | 193° |
| 2026-04-27 10:14 | -27.65843 | 153.09532 | 8711 ft | 334 kts | 192° |
| 2026-04-27 10:15 | -27.68079 | 153.08887 | 9384 ft | 338 kts | 193° |
| 2026-04-27 10:15 | -27.70405 | 153.08188 | 10088 ft | 343 kts | 193° |
| 2026-04-27 10:15 | -27.72689 | 153.07467 | 10662 ft | 350 kts | 194° |
| 2026-04-27 10:15 | -27.75071 | 153.06688 | 11024 ft | 362 kts | 194° |
| 2026-04-27 10:16 | -27.77504 | 153.05875 | 11581 ft | 367 kts | 195° |
| 2026-04-27 10:16 | -27.79965 | 153.05040 | 12177 ft | 371 kts | 197° |
| 2026-04-27 10:16 | -27.82352 | 153.03865 | 12770 ft | 378 kts | 208° |
| 2026-04-27 10:16 | -27.84554 | 153.02214 | 13379 ft | 383 kts | 214° |
| 2026-04-27 10:17 | -27.86734 | 153.00459 | 14001 ft | 387 kts | 214° |
| 2026-04-27 10:17 | -27.88940 | 152.98694 | 14548 ft | 391 kts | 214° |
| 2026-04-27 10:17 | -27.91167 | 152.96912 | 15125 ft | 394 kts | 214° |
| 2026-04-27 10:17 | -27.93414 | 152.95118 | 15706 ft | 397 kts | 214° |
| 2026-04-27 10:18 | -27.95650 | 152.93334 | 16284 ft | 400 kts | 214° |
| 2026-04-27 10:18 | -27.97932 | 152.91513 | 16841 ft | 403 kts | 214° |
| 2026-04-27 10:18 | -28.00231 | 152.89677 | 17409 ft | 407 kts | 214° |
| 2026-04-27 10:18 | -28.02553 | 152.87819 | 17979 ft | 410 kts | 214° |
| 2026-04-27 10:19 | -28.04888 | 152.85948 | 18543 ft | 413 kts | 214° |
| 2026-04-27 10:19 | -28.07244 | 152.84057 | 19014 ft | 416 kts | 214° |
| 2026-04-27 10:19 | -28.09609 | 152.82154 | 19499 ft | 419 kts | 214° |
| 2026-04-27 10:19 | -28.12001 | 152.80233 | 19948 ft | 423 kts | 214° |
| 2026-04-27 10:20 | -28.14411 | 152.78303 | 20412 ft | 425 kts | 214° |
| 2026-04-27 10:20 | -28.16834 | 152.76362 | 20872 ft | 428 kts | 214° |
| 2026-04-27 10:20 | -28.19238 | 152.74435 | 21318 ft | 431 kts | 214° |
| 2026-04-27 10:20 | -28.21690 | 152.72467 | 21751 ft | 433 kts | 215° |
| 2026-04-27 10:21 | -28.24158 | 152.70481 | 22185 ft | 436 kts | 215° |
| 2026-04-27 10:21 | -28.26635 | 152.68482 | 22627 ft | 439 kts | 215° |
| 2026-04-27 10:21 | -28.29131 | 152.66466 | 23040 ft | 441 kts | 216° |
| 2026-04-27 10:21 | -28.31637 | 152.64443 | 23476 ft | 444 kts | 215° |
| 2026-04-27 10:22 | -28.34154 | 152.62411 | 23914 ft | 444 kts | 215° |
| 2026-04-27 10:22 | -28.36676 | 152.60375 | 24287 ft | 446 kts | 215° |
| 2026-04-27 10:22 | -28.39176 | 152.58356 | 24652 ft | 447 kts | 215° |
| 2026-04-27 10:22 | -28.41715 | 152.56302 | 25017 ft | 449 kts | 216° |
| 2026-04-27 10:23 | -28.44260 | 152.54244 | 25378 ft | 450 kts | 215° |
| 2026-04-27 10:23 | -28.46815 | 152.52178 | 25736 ft | 452 kts | 215° |
| 2026-04-27 10:23 | -28.49384 | 152.50101 | 26076 ft | 453 kts | 215° |
| 2026-04-27 10:23 | -28.51960 | 152.48018 | 26411 ft | 455 kts | 215° |
| 2026-04-27 10:24 | -28.54540 | 152.45927 | 26764 ft | 456 kts | 215° |
| 2026-04-27 10:24 | -28.57123 | 152.43828 | 27099 ft | 457 kts | 215° |
| 2026-04-27 10:24 | -28.59711 | 152.41724 | 27457 ft | 458 kts | 215° |
| 2026-04-27 10:24 | -28.62281 | 152.39641 | 27790 ft | 460 kts | 215° |
| 2026-04-27 10:25 | -28.64895 | 152.37522 | 28115 ft | 462 kts | 215° |
| 2026-04-27 10:25 | -28.67510 | 152.35396 | 28428 ft | 463 kts | 215° |
| 2026-04-27 10:25 | -28.70128 | 152.33263 | 28879 ft | 462 kts | 215° |
| 2026-04-27 10:25 | -28.72738 | 152.31136 | 29337 ft | 460 kts | 215° |
| 2026-04-27 10:26 | -28.75340 | 152.29014 | 29781 ft | 459 kts | 215° |
| 2026-04-27 10:26 | -28.77932 | 152.26900 | 30234 ft | 457 kts | 215° |
| 2026-04-27 10:26 | -28.80511 | 152.24798 | 30664 ft | 455 kts | 215° |
| 2026-04-27 10:26 | -28.83080 | 152.22705 | 31026 ft | 454 kts | 214° |
| 2026-04-27 10:27 | -28.85647 | 152.20616 | 31373 ft | 453 kts | 215° |
| 2026-04-27 10:27 | -28.88206 | 152.18522 | 31724 ft | 452 kts | 215° |
| 2026-04-27 10:27 | -28.90723 | 152.16450 | 32070 ft | 451 kts | 215° |
| 2026-04-27 10:27 | -28.93264 | 152.14354 | 32405 ft | 450 kts | 215° |
| 2026-04-27 10:28 | -28.95801 | 152.12265 | 32752 ft | 450 kts | 215° |
| 2026-04-27 10:28 | -28.98336 | 152.10183 | 33080 ft | 449 kts | 214° |
| 2026-04-27 10:28 | -29.00878 | 152.08102 | 33379 ft | 449 kts | 214° |
| 2026-04-27 10:28 | -29.03413 | 152.06028 | 33683 ft | 449 kts | 214° |
| 2026-04-27 10:29 | -29.05952 | 152.03951 | 33992 ft | 448 kts | 215° |
| 2026-04-27 10:29 | -29.08482 | 152.01879 | 34301 ft | 448 kts | 215° |
| 2026-04-27 10:29 | -29.10977 | 151.99833 | 34563 ft | 447 kts | 215° |
| 2026-04-27 10:29 | -29.13508 | 151.97755 | 34816 ft | 447 kts | 215° |
| 2026-04-27 10:30 | -29.16036 | 151.95680 | 35070 ft | 447 kts | 215° |
| 2026-04-27 10:30 | -29.18563 | 151.93601 | 35316 ft | 447 kts | 215° |
| 2026-04-27 10:30 | -29.21080 | 151.91520 | 35581 ft | 446 kts | 215° |
| 2026-04-27 10:30 | -29.23590 | 151.89442 | 35852 ft | 445 kts | 214° |
| 2026-04-27 10:31 | -29.26102 | 151.87367 | 36112 ft | 445 kts | 215° |
| 2026-04-27 10:31 | -29.28611 | 151.85295 | 36271 ft | 445 kts | 215° |
| 2026-04-27 10:31 | -29.33642 | 151.81140 | 36307 ft | 446 kts | 215° |
| 2026-04-27 10:32 | -29.38639 | 151.77017 | 36302 ft | 445 kts | 215° |
| 2026-04-27 10:32 | -29.43662 | 151.72853 | 36303 ft | 446 kts | 215° |
| 2026-04-27 10:33 | -29.47838 | 151.69382 | 36307 ft | 447 kts | 214° |
| 2026-04-27 10:33 | -29.53870 | 151.64789 | 36306 ft | 445 kts | 208° |
| 2026-04-27 10:34 | -29.59238 | 151.61324 | 36310 ft | 446 kts | 208° |
| 2026-04-27 10:34 | -29.63761 | 151.58393 | 36319 ft | 445 kts | 208° |
| 2026-04-27 10:35 | -29.69115 | 151.54906 | 36317 ft | 445 kts | 207° |
| 2026-04-27 10:35 | -29.74500 | 151.51394 | 36318 ft | 445 kts | 208° |
| 2026-04-27 10:36 | -29.80770 | 151.47314 | 36323 ft | 445 kts | 208° |
| 2026-04-27 10:36 | -29.85288 | 151.44373 | 36317 ft | 445 kts | 208° |
| 2026-04-27 10:37 | -29.90647 | 151.40885 | 36314 ft | 445 kts | 208° |
| 2026-04-27 10:37 | -29.96038 | 151.37379 | 36319 ft | 446 kts | 208° |
| 2026-04-27 10:38 | -30.01437 | 151.33850 | 36318 ft | 446 kts | 208° |
| 2026-04-27 10:38 | -30.06830 | 151.30313 | 36310 ft | 446 kts | 208° |
| 2026-04-27 10:39 | -30.12178 | 151.26804 | 36314 ft | 445 kts | 208° |
| 2026-04-27 10:39 | -30.17569 | 151.23263 | 36315 ft | 446 kts | 208° |
| 2026-04-27 10:40 | -30.22958 | 151.19718 | 36304 ft | 445 kts | 208° |
| 2026-04-27 10:40 | -30.28337 | 151.16179 | 36306 ft | 445 kts | 209° |
| 2026-04-27 10:41 | -30.33678 | 151.12653 | 36302 ft | 445 kts | 208° |
| 2026-04-27 10:41 | -30.39062 | 151.09101 | 36299 ft | 445 kts | 208° |
| 2026-04-27 10:42 | -30.44444 | 151.05538 | 36307 ft | 446 kts | 208° |
| 2026-04-27 10:42 | -30.49824 | 151.01968 | 36311 ft | 445 kts | 209° |
| 2026-04-27 10:43 | -30.55205 | 150.98397 | 36305 ft | 446 kts | 208° |
| 2026-04-27 10:43 | -30.60552 | 150.94855 | 36309 ft | 445 kts | 208° |
| 2026-04-27 10:44 | -30.65936 | 150.91289 | 36304 ft | 446 kts | 209° |
| 2026-04-27 10:44 | -30.71311 | 150.87703 | 36306 ft | 446 kts | 209° |
| 2026-04-27 10:45 | -30.76690 | 150.84113 | 36303 ft | 446 kts | 209° |
| 2026-04-27 10:45 | -30.82033 | 150.80549 | 36302 ft | 446 kts | 209° |
| 2026-04-27 10:46 | -30.87407 | 150.76958 | 36300 ft | 445 kts | 209° |
| 2026-04-27 10:46 | -30.92778 | 150.73367 | 36287 ft | 445 kts | 209° |
| 2026-04-27 10:47 | -30.98148 | 150.69773 | 36312 ft | 445 kts | 209° |
| 2026-04-27 10:47 | -31.03515 | 150.66173 | 36313 ft | 445 kts | 209° |
| 2026-04-27 10:48 | -31.08550 | 150.62067 | 36308 ft | 446 kts | 221° |
| 2026-04-27 10:48 | -31.13179 | 150.57235 | 36303 ft | 447 kts | 220° |
| 2026-04-27 10:49 | -31.17815 | 150.52412 | 36300 ft | 446 kts | 220° |
| 2026-04-27 10:49 | -31.22449 | 150.47583 | 36293 ft | 447 kts | 220° |
| 2026-04-27 10:50 | -31.27049 | 150.42780 | 36289 ft | 446 kts | 220° |
| 2026-04-27 10:50 | -31.31669 | 150.37960 | 36290 ft | 445 kts | 220° |
| 2026-04-27 10:51 | -31.36289 | 150.33136 | 36298 ft | 445 kts | 221° |
| 2026-04-27 10:51 | -31.40900 | 150.28284 | 36299 ft | 445 kts | 221° |
| 2026-04-27 10:52 | -31.45500 | 150.23426 | 36305 ft | 446 kts | 221° |
| 2026-04-27 10:52 | -31.50086 | 150.18608 | 36306 ft | 446 kts | 221° |
| 2026-04-27 10:53 | -31.57002 | 150.11332 | 36312 ft | 444 kts | 220° |
| 2026-04-27 10:54 | -31.61589 | 150.06487 | 36322 ft | 444 kts | 221° |
| 2026-04-27 10:54 | -31.66151 | 150.01686 | 36321 ft | 443 kts | 220° |
| 2026-04-27 10:55 | -31.70740 | 149.96865 | 36325 ft | 443 kts | 221° |
| 2026-04-27 10:55 | -31.75319 | 149.92021 | 36322 ft | 443 kts | 221° |
| 2026-04-27 10:56 | -31.79895 | 149.87155 | 36324 ft | 444 kts | 221° |
| 2026-04-27 10:56 | -31.84442 | 149.82311 | 36325 ft | 444 kts | 222° |
| 2026-04-27 10:57 | -31.88851 | 149.77222 | 36327 ft | 444 kts | 225° |
| 2026-04-27 10:57 | -31.93111 | 149.71950 | 36330 ft | 444 kts | 225° |
| 2026-04-27 10:58 | -31.97371 | 149.66678 | 36330 ft | 444 kts | 225° |
| 2026-04-27 10:58 | -32.01667 | 149.61438 | 36331 ft | 444 kts | 225° |
| 2026-04-27 10:59 | -32.05945 | 149.56247 | 36326 ft | 444 kts | 225° |
| 2026-04-27 10:59 | -32.10256 | 149.51027 | 36329 ft | 444 kts | 225° |
| 2026-04-27 11:00 | -32.16711 | 149.43177 | 36326 ft | 445 kts | 225° |
| 2026-04-27 11:00 | -32.21004 | 149.37917 | 36329 ft | 445 kts | 225° |
| 2026-04-27 11:01 | -32.25287 | 149.32710 | 36326 ft | 445 kts | 225° |
| 2026-04-27 11:01 | -32.29597 | 149.27468 | 36327 ft | 445 kts | 225° |
| 2026-04-27 11:02 | -32.33902 | 149.22204 | 36324 ft | 445 kts | 225° |
| 2026-04-27 11:02 | -32.38193 | 149.16938 | 36324 ft | 445 kts | 225° |
| 2026-04-27 11:03 | -32.42451 | 149.11701 | 36324 ft | 445 kts | 225° |
| 2026-04-27 11:03 | -32.46744 | 149.06425 | 36333 ft | 445 kts | 225° |
| 2026-04-27 11:04 | -32.51025 | 149.01150 | 36330 ft | 444 kts | 225° |
| 2026-04-27 11:04 | -32.55300 | 148.95870 | 36334 ft | 444 kts | 225° |
| 2026-04-27 11:05 | -32.59539 | 148.90631 | 36336 ft | 443 kts | 225° |
| 2026-04-27 11:05 | -32.63806 | 148.85350 | 36339 ft | 443 kts | 225° |
| 2026-04-27 11:06 | -32.68065 | 148.80071 | 36328 ft | 442 kts | 225° |
| 2026-04-27 11:06 | -32.72323 | 148.74794 | 36328 ft | 442 kts | 224° |
| 2026-04-27 11:07 | -32.76573 | 148.69521 | 36335 ft | 442 kts | 224° |
| 2026-04-27 11:07 | -32.80785 | 148.64274 | 36338 ft | 441 kts | 224° |
| 2026-04-27 11:08 | -32.85015 | 148.58996 | 36343 ft | 441 kts | 224° |
| 2026-04-27 11:08 | -32.89246 | 148.53710 | 36343 ft | 441 kts | 224° |
| 2026-04-27 11:09 | -32.93440 | 148.48467 | 36340 ft | 440 kts | 224° |
| 2026-04-27 11:09 | -32.97650 | 148.43192 | 36331 ft | 439 kts | 223° |
| 2026-04-27 11:10 | -33.01852 | 148.37928 | 36343 ft | 438 kts | 223° |
| 2026-04-27 11:10 | -33.06053 | 148.32658 | 36334 ft | 438 kts | 223° |
| 2026-04-27 11:11 | -33.10216 | 148.27421 | 36323 ft | 438 kts | 223° |
| 2026-04-27 11:11 | -33.14571 | 148.22392 | 36319 ft | 433 kts | 214° |
| 2026-04-27 11:12 | -33.19330 | 148.18005 | 36324 ft | 432 kts | 213° |
| 2026-04-27 11:12 | -33.24085 | 148.13642 | 36316 ft | 431 kts | 213° |
| 2026-04-27 11:13 | -33.28826 | 148.09276 | 36325 ft | 430 kts | 213° |
| 2026-04-27 11:13 | -33.33525 | 148.04927 | 36320 ft | 430 kts | 213° |
| 2026-04-27 11:14 | -33.38246 | 148.00542 | 36324 ft | 429 kts | 213° |
| 2026-04-27 11:14 | -33.42958 | 147.96165 | 36323 ft | 429 kts | 213° |
| 2026-04-27 11:15 | -33.47673 | 147.91790 | 36302 ft | 428 kts | 212° |
| 2026-04-27 11:15 | -33.52344 | 147.87454 | 36320 ft | 427 kts | 212° |
| 2026-04-27 11:16 | -33.57033 | 147.83087 | 36332 ft | 426 kts | 212° |
| 2026-04-27 11:16 | -33.61707 | 147.78716 | 36324 ft | 426 kts | 212° |
| 2026-04-27 11:17 | -33.66376 | 147.74342 | 36320 ft | 425 kts | 212° |
| 2026-04-27 11:17 | -33.71004 | 147.70007 | 36325 ft | 424 kts | 212° |
| 2026-04-27 11:18 | -33.75659 | 147.65646 | 36330 ft | 424 kts | 212° |
| 2026-04-27 11:18 | -33.80306 | 147.61282 | 36326 ft | 424 kts | 212° |
| 2026-04-27 11:19 | -33.84947 | 147.56924 | 36322 ft | 423 kts | 212° |
| 2026-04-27 11:19 | -33.89550 | 147.52599 | 36327 ft | 423 kts | 212° |
| 2026-04-27 11:20 | -33.94172 | 147.48240 | 36325 ft | 422 kts | 212° |
| 2026-04-27 11:20 | -33.98798 | 147.43868 | 36322 ft | 422 kts | 212° |
| 2026-04-27 11:21 | -34.03414 | 147.39505 | 36324 ft | 422 kts | 212° |
| 2026-04-27 11:21 | -34.08029 | 147.35144 | 36316 ft | 421 kts | 212° |
| 2026-04-27 11:22 | -34.12604 | 147.30815 | 36323 ft | 421 kts | 212° |
| 2026-04-27 11:22 | -34.17208 | 147.26439 | 36316 ft | 421 kts | 212° |
| 2026-04-27 11:23 | -34.21803 | 147.22072 | 36336 ft | 421 kts | 212° |
| 2026-04-27 11:23 | -34.26398 | 147.17696 | 36333 ft | 420 kts | 212° |
| 2026-04-27 11:24 | -34.30960 | 147.13340 | 36334 ft | 421 kts | 212° |
| 2026-04-27 11:24 | -34.35555 | 147.08955 | 36312 ft | 421 kts | 213° |
| 2026-04-27 11:25 | -34.40141 | 147.04565 | 36317 ft | 421 kts | 213° |
| 2026-04-27 11:25 | -34.44737 | 147.00169 | 36321 ft | 421 kts | 213° |
| 2026-04-27 11:26 | -34.49332 | 146.95771 | 36327 ft | 421 kts | 213° |
| 2026-04-27 11:26 | -34.53894 | 146.91381 | 36321 ft | 421 kts | 213° |
| 2026-04-27 11:27 | -34.58478 | 146.86972 | 36321 ft | 421 kts | 213° |
| 2026-04-27 11:27 | -34.63064 | 146.82559 | 36303 ft | 421 kts | 213° |
| 2026-04-27 11:28 | -34.67622 | 146.78173 | 36318 ft | 421 kts | 213° |
| 2026-04-27 11:28 | -34.72200 | 146.73754 | 36322 ft | 421 kts | 213° |
| 2026-04-27 11:29 | -34.76787 | 146.69318 | 36321 ft | 421 kts | 213° |
| 2026-04-27 11:29 | -34.81369 | 146.64884 | 36323 ft | 421 kts | 214° |
| 2026-04-27 11:30 | -34.85948 | 146.60432 | 36319 ft | 421 kts | 214° |
| 2026-04-27 11:30 | -34.90482 | 146.55991 | 36321 ft | 421 kts | 214° |
| 2026-04-27 11:31 | -34.95060 | 146.51527 | 36319 ft | 421 kts | 214° |
| 2026-04-27 11:31 | -34.99643 | 146.47074 | 36320 ft | 422 kts | 214° |
| 2026-04-27 11:32 | -35.04230 | 146.42602 | 36317 ft | 422 kts | 214° |
| 2026-04-27 11:32 | -35.08809 | 146.38121 | 36319 ft | 422 kts | 214° |
| 2026-04-27 11:33 | -35.13359 | 146.33661 | 36321 ft | 422 kts | 214° |
| 2026-04-27 11:33 | -35.17939 | 146.29165 | 36305 ft | 422 kts | 215° |
| 2026-04-27 11:34 | -35.22521 | 146.24666 | 36309 ft | 423 kts | 215° |
| 2026-04-27 11:34 | -35.27081 | 146.20188 | 36310 ft | 423 kts | 215° |
| 2026-04-27 11:35 | -35.31666 | 146.15683 | 36310 ft | 423 kts | 215° |
| 2026-04-27 11:35 | -35.36251 | 146.11163 | 36305 ft | 423 kts | 215° |
| 2026-04-27 11:36 | -35.40826 | 146.06638 | 36309 ft | 423 kts | 215° |
| 2026-04-27 11:36 | -35.45409 | 146.02103 | 36299 ft | 423 kts | 216° |
| 2026-04-27 11:37 | -35.49961 | 145.97594 | 36306 ft | 423 kts | 216° |
| 2026-04-27 11:37 | -35.54546 | 145.93055 | 36310 ft | 423 kts | 216° |
| 2026-04-27 11:38 | -35.59130 | 145.88501 | 36312 ft | 424 kts | 216° |
| 2026-04-27 11:38 | -35.63711 | 145.83937 | 36314 ft | 424 kts | 216° |
| 2026-04-27 11:39 | -35.68270 | 145.79412 | 36314 ft | 424 kts | 216° |
| 2026-04-27 11:39 | -35.72865 | 145.74865 | 36304 ft | 424 kts | 216° |
| 2026-04-27 11:40 | -35.77454 | 145.70288 | 36311 ft | 424 kts | 216° |
| 2026-04-27 11:40 | -35.82025 | 145.65699 | 36307 ft | 424 kts | 217° |
| 2026-04-27 11:41 | -35.86574 | 145.61130 | 36312 ft | 424 kts | 217° |
| 2026-04-27 11:41 | -35.91152 | 145.56534 | 36310 ft | 425 kts | 217° |
| 2026-04-27 11:42 | -35.95731 | 145.51924 | 36298 ft | 425 kts | 217° |
| 2026-04-27 11:42 | -35.99570 | 145.48052 | 36303 ft | 425 kts | 217° |
| 2026-04-27 11:43 | -36.04155 | 145.43431 | 36315 ft | 425 kts | 217° |
| 2026-04-27 11:43 | -36.08739 | 145.38805 | 36313 ft | 425 kts | 217° |
| 2026-04-27 11:44 | -36.13291 | 145.34212 | 36317 ft | 425 kts | 217° |
| 2026-04-27 11:44 | -36.17870 | 145.29562 | 36315 ft | 426 kts | 217° |
| 2026-04-27 11:45 | -36.21659 | 145.25684 | 36302 ft | 426 kts | 218° |
| 2026-04-27 11:45 | -36.26999 | 145.20227 | 36307 ft | 426 kts | 218° |
| 2026-04-27 11:46 | -36.31554 | 145.15600 | 36315 ft | 426 kts | 218° |
| 2026-04-27 11:46 | -36.36135 | 145.10939 | 36316 ft | 426 kts | 218° |
| 2026-04-27 11:47 | -36.40724 | 145.06283 | 36249 ft | 427 kts | 218° |
| 2026-04-27 11:47 | -36.43025 | 145.03942 | 35775 ft | 427 kts | 218° |
| 2026-04-27 11:47 | -36.45319 | 145.01601 | 35295 ft | 427 kts | 218° |
| 2026-04-27 11:48 | -36.47608 | 144.99257 | 34768 ft | 428 kts | 218° |
| 2026-04-27 11:48 | -36.49881 | 144.96929 | 34090 ft | 430 kts | 218° |
| 2026-04-27 11:48 | -36.52188 | 144.94565 | 33351 ft | 431 kts | 218° |
| 2026-04-27 11:48 | -36.54503 | 144.92187 | 32623 ft | 432 kts | 218° |
| 2026-04-27 11:49 | -36.56820 | 144.89805 | 31915 ft | 434 kts | 218° |
| 2026-04-27 11:49 | -36.59151 | 144.87408 | 31177 ft | 436 kts | 217° |
| 2026-04-27 11:49 | -36.61493 | 144.84999 | 30448 ft | 438 kts | 217° |
| 2026-04-27 11:49 | -36.63847 | 144.82578 | 29641 ft | 440 kts | 217° |
| 2026-04-27 11:50 | -36.66215 | 144.80143 | 28826 ft | 443 kts | 217° |
| 2026-04-27 11:50 | -36.68562 | 144.77722 | 28047 ft | 445 kts | 217° |
| 2026-04-27 11:50 | -36.70955 | 144.75247 | 27275 ft | 448 kts | 217° |
| 2026-04-27 11:50 | -36.73351 | 144.72765 | 26529 ft | 447 kts | 217° |
| 2026-04-27 11:51 | -36.75739 | 144.70290 | 25802 ft | 445 kts | 217° |
| 2026-04-27 11:51 | -36.78160 | 144.67931 | 25086 ft | 439 kts | 211° |
| 2026-04-27 11:51 | -36.83656 | 144.64941 | 23698 ft | 428 kts | 192° |
| 2026-04-27 11:52 | -36.86584 | 144.64356 | 22898 ft | 424 kts | 185° |
| 2026-04-27 11:52 | -36.89509 | 144.63945 | 22121 ft | 422 kts | 186° |
| 2026-04-27 11:52 | -36.92385 | 144.63545 | 21377 ft | 420 kts | 186° |
| 2026-04-27 11:52 | -36.95279 | 144.63143 | 20634 ft | 418 kts | 186° |
| 2026-04-27 11:53 | -36.98159 | 144.62743 | 19910 ft | 416 kts | 186° |
| 2026-04-27 11:53 | -37.01028 | 144.62344 | 19215 ft | 414 kts | 186° |
| 2026-04-27 11:53 | -37.03890 | 144.61942 | 18515 ft | 413 kts | 186° |
| 2026-04-27 11:53 | -37.06744 | 144.61536 | 17730 ft | 412 kts | 186° |
| 2026-04-27 11:54 | -37.09576 | 144.61134 | 16959 ft | 405 kts | 186° |
| 2026-04-27 11:54 | -37.12345 | 144.60744 | 16218 ft | 397 kts | 186° |
| 2026-04-27 11:54 | -37.15073 | 144.60362 | 15488 ft | 393 kts | 186° |
| 2026-04-27 11:54 | -37.17779 | 144.59984 | 14772 ft | 389 kts | 186° |
| 2026-04-27 11:55 | -37.20424 | 144.59613 | 14077 ft | 385 kts | 186° |
| 2026-04-27 11:55 | -37.23068 | 144.59239 | 13646 ft | 383 kts | 186° |
| 2026-04-27 11:55 | -37.25720 | 144.58864 | 13244 ft | 381 kts | 186° |
| 2026-04-27 11:55 | -37.28338 | 144.58493 | 12664 ft | 376 kts | 186° |
| 2026-04-27 11:56 | -37.30922 | 144.58128 | 12086 ft | 372 kts | 186° |
| 2026-04-27 11:56 | -37.33481 | 144.57770 | 11510 ft | 368 kts | 187° |
| 2026-04-27 11:56 | -37.35991 | 144.57420 | 11284 ft | 355 kts | 187° |
| 2026-04-27 11:56 | -37.38384 | 144.57083 | 11166 ft | 339 kts | 187° |
| 2026-04-27 11:57 | -37.40682 | 144.56757 | 11045 ft | 325 kts | 187° |
| 2026-04-27 11:57 | -37.42857 | 144.56450 | 10921 ft | 313 kts | 187° |
| 2026-04-27 11:57 | -37.44976 | 144.56150 | 10791 ft | 302 kts | 187° |
| 2026-04-27 11:57 | -37.47050 | 144.55854 | 10466 ft | 299 kts | 187° |
| 2026-04-27 11:58 | -37.49102 | 144.55561 | 10219 ft | 295 kts | 187° |
| 2026-04-27 11:58 | -37.51145 | 144.55273 | 10069 ft | 295 kts | 187° |
| 2026-04-27 11:58 | -37.53186 | 144.54983 | 9838 ft | 296 kts | 187° |
| 2026-04-27 11:58 | -37.55253 | 144.54690 | 9373 ft | 298 kts | 187° |
| 2026-04-27 11:59 | -37.57301 | 144.54399 | 9036 ft | 295 kts | 187° |
| 2026-04-27 11:59 | -37.59306 | 144.54111 | 8558 ft | 293 kts | 187° |
| 2026-04-27 11:59 | -37.61353 | 144.53818 | 7979 ft | 292 kts | 188° |
| 2026-04-27 11:59 | -37.63338 | 144.53535 | 7417 ft | 291 kts | 188° |
| 2026-04-27 12:00 | -37.65340 | 144.53242 | 6870 ft | 288 kts | 189° |
| 2026-04-27 12:00 | -37.67327 | 144.52918 | 6327 ft | 286 kts | 190° |
| 2026-04-27 12:00 | -37.69290 | 144.52583 | 5790 ft | 282 kts | 190° |
| 2026-04-27 12:00 | -37.71223 | 144.52251 | 5311 ft | 279 kts | 190° |
| 2026-04-27 12:01 | -37.73156 | 144.51917 | 4832 ft | 282 kts | 189° |
| 2026-04-27 12:01 | -37.75093 | 144.51585 | 4518 ft | 279 kts | 189° |
| 2026-04-27 12:01 | -37.77004 | 144.51262 | 4051 ft | 279 kts | 188° |
| 2026-04-27 12:01 | -37.78906 | 144.50942 | 3654 ft | 271 kts | 188° |
| 2026-04-27 12:02 | -37.80718 | 144.50641 | 3504 ft | 255 kts | 188° |
| 2026-04-27 12:02 | -37.82414 | 144.50357 | 3384 ft | 237 kts | 188° |
| 2026-04-27 12:02 | -37.84033 | 144.50085 | 3285 ft | 234 kts | 188° |
| 2026-04-27 12:02 | -37.85641 | 144.49814 | 3179 ft | 232 kts | 188° |
| 2026-04-27 12:03 | -37.87242 | 144.49546 | 3078 ft | 232 kts | 187° |
| 2026-04-27 12:03 | -37.88823 | 144.49280 | 2999 ft | 223 kts | 187° |
| 2026-04-27 12:03 | -37.90333 | 144.49026 | 2661 ft | 224 kts | 187° |
| 2026-04-27 12:03 | -37.91864 | 144.48769 | 2252 ft | 217 kts | 186° |
| 2026-04-27 12:04 | -37.93289 | 144.48528 | 1977 ft | 196 kts | 186° |
| 2026-04-27 12:04 | -37.94575 | 144.48313 | 1722 ft | 176 kts | 186° |
| 2026-04-27 12:04 | -37.95707 | 144.48122 | 1468 ft | 156 kts | 186° |
| 2026-04-27 12:04 | -37.96761 | 144.47946 | 1256 ft | 151 kts | 187° |
| 2026-04-27 12:05 | -37.97789 | 144.47772 | 1054 ft | 147 kts | 186° |
| 2026-04-27 12:05 | -37.98801 | 144.47603 | 856 ft | 146 kts | 188° |
| 2026-04-27 12:05 | -37.99803 | 144.47434 | 666 ft | 144 kts | 187° |
| 2026-04-27 12:05 | -38.00786 | 144.47264 | 471 ft | 145 kts | 187° |
| 2026-04-27 12:06 | -38.01783 | 144.47113 | 269 ft | 144 kts | 188° |
| 2026-04-27 12:06 | -38.02774 | 144.46936 | 73 ft | 143 kts | 188° |
| 2026-04-27 12:06 | -38.03700 | 144.46781 | 37 ft | 116 kts | 188° |
| 2026-04-27 12:06 | -38.04333 | 144.46673 | 35 ft | 68 kts | 187° |
| 2026-04-27 12:07 | -38.04590 | 144.46630 | 36 ft | 17 kts | 181° |
| 2026-04-27 12:07 | -38.04641 | 144.46734 | 37 ft | 14 kts | 98° |
| 2026-04-27 12:07 | -38.04643 | 144.46802 | 37 ft | 7 kts | 76° |
| 2026-04-27 12:07 | -38.04601 | 144.46839 | 37 ft | 9 kts | 14° |
| 2026-04-27 12:08 | -38.04525 | 144.46853 | 36 ft | 13 kts | 8° |
| 2026-04-27 12:08 | -38.04421 | 144.46870 | 36 ft | 17 kts | 7° |
| 2026-04-27 12:08 | -38.04297 | 144.46889 | 36 ft | 19 kts | 7° |
| 2026-04-27 12:08 | -38.04162 | 144.46912 | 34 ft | 20 kts | 7° |
| 2026-04-27 12:09 | -38.04016 | 144.46937 | 34 ft | 22 kts | 8° |
| 2026-04-27 12:09 | -38.03859 | 144.46964 | 36 ft | 23 kts | 8° |
| 2026-04-27 12:09 | -38.03704 | 144.46990 | 36 ft | 19 kts | 7° |
| 2026-04-27 12:09 | -38.03606 | 144.47007 | 36 ft | 12 kts | 8° |
| 2026-04-27 12:10 | -38.03532 | 144.47020 | 36 ft | 9 kts | 8° |
| 2026-04-27 12:10 | -38.03462 | 144.47033 | 36 ft | 10 kts | 8° |
| 2026-04-27 12:10 | -38.03407 | 144.47043 | 36 ft | 8 kts | 8° |
| 2026-04-27 12:10 | -38.03340 | 144.47061 | 34 ft | 12 kts | 20° |
| 2026-04-27 12:11 | -38.03259 | 144.47124 | 34 ft | 15 kts | 42° |
| 2026-04-27 12:11 | -38.03193 | 144.47232 | 36 ft | 15 kts | 51° |
| 2026-04-27 12:11 | -38.03159 | 144.47273 | 36 ft | 3 kts | 39° |
| 2026-04-27 12:11 | -38.03141 | 144.47290 | 36 ft | 4 kts | 34° |
| 2026-04-27 12:12 | -38.03125 | 144.47301 | 34 ft | 1 kts | 28° |
| 2026-04-27 12:12 | -38.03112 | 144.47309 | 36 ft | 3 kts | 24° |
| 2026-04-27 12:12 | -38.03085 | 144.47320 | 36 ft | 5 kts | 15° |
| 2026-04-27 12:12 | -38.03044 | 144.47331 | 36 ft | 7 kts | 9° |
| 2026-04-27 12:13 | -38.02988 | 144.47342 | 36 ft | 9 kts | 9° |
| 2026-04-27 12:13 | -38.02919 | 144.47355 | 36 ft | 11 kts | 5° |
| 2026-04-27 12:13 | -38.02837 | 144.47369 | 34 ft | 13 kts | 19° |
| 2026-04-27 12:13 | -38.02810 | 144.47440 | 36 ft | 8 kts | 94° |
| 2026-04-27 12:14 | -38.02796 | 144.47479 | 35 ft | 5 kts | 30° |
| 2026-04-27 12:14 | -38.02757 | 144.47488 | 36 ft | 4 kts | 5° |
| 2026-04-27 12:14 | -38.02750 | 144.47489 | 36 ft | 0 kts | 5° |